Time;durP1;ratioP1;P1;durP2;ratioP2;P2;SDS_P1;SDS_P2;PMS_P1;PMS_P2;Temp;Humidity;BMP_temperature;BMP_pressure;BME280_temperature;BME280_humidity;BME280_pressure;Samples;Min_cycle;Max_cycle;Signal;HPM_P1;HPM_P2
2021/12/05 00:18:56;;;;;;;7.50;7.20;;;7.70;78.20;;;;;;5048970;28;20040;-80
2021/12/05 00:24:05;;;;;;;;;;;7.70;78.20;;;;;;5048847;28;20028;-80
2021/12/05 00:26:32;;;;;;;8.83;8.43;;;7.70;78.20;;;;;;5049689;28;19908;-81
2021/12/05 00:32:00;;;;;;;8.47;8.07;;;7.70;78.20;;;;;;5048220;28;20044;-80
2021/12/05 00:34:44;;;;;;;8.20;7.80;;;7.60;78.20;;;;;;5051537;28;20037;-80
2021/12/05 00:45:48;;;;;;;7.90;7.50;;;7.50;78.40;;;;;;5046186;28;20398;-78
2021/12/05 01:09:31;;;;;;;7.93;7.53;;;7.40;78.50;;;;;;4956257;28;20522;-80
2021/12/05 01:12:12;;;;;;;8.37;7.97;;;7.40;78.50;;;;;;4958103;28;20054;-80
2021/12/05 01:17:31;;;;;;;8.30;7.90;;;7.40;78.50;;;;;;4954049;28;20050;-80
2021/12/05 01:19:57;;;;;;;9.60;8.80;;;7.40;78.50;;;;;;4967749;28;20047;-80
2021/12/05 01:22:24;;;;;;;8.00;7.60;;;7.50;78.60;;;;;;4954092;28;20035;-80
2021/12/05 01:25:18;;;;;;;8.10;7.70;;;7.50;78.60;;;;;;4967287;28;20046;-80
2021/12/05 01:28:12;;;;;;;8.07;7.67;;;7.50;78.60;;;;;;4950930;28;20054;-80
2021/12/05 01:57:07;;;;;;;8.00;7.60;;;7.40;78.60;;;;;;4984231;28;20033;-80
2021/12/05 02:00:01;;;;;;;8.10;7.70;;;7.30;78.60;;;;;;4997933;28;20038;-80
2021/12/05 02:16:04;;;;;;;7.95;7.55;;;7.30;78.60;;;;;;5012019;28;20045;-81
2021/12/05 02:37:40;;;;;;;8.00;7.60;;;7.30;78.60;;;;;;4981015;28;20030;-81
2021/12/05 02:40:31;;;;;;;8.30;7.90;;;7.30;78.60;;;;;;4976930;28;20045;-81
2021/12/05 02:43:06;;;;;;;8.40;8.00;;;7.30;78.60;;;;;;4981770;28;20030;-81
2021/12/05 02:45:34;;;;;;;8.43;8.03;;;7.30;78.70;;;;;;4963648;28;20043;-80
2021/12/05 02:48:01;;;;;;;7.70;7.40;;;7.30;78.70;;;;;;4976626;28;20558;-81
2021/12/05 02:50:29;;;;;;;7.50;7.20;;;7.20;78.60;;;;;;4971087;28;20049;-81
2021/12/05 02:53:01;;;;;;;7.47;7.17;;;7.20;78.70;;;;;;4940008;28;20034;-80
2021/12/05 02:55:36;;;;;;;8.10;7.70;;;7.30;78.70;;;;;;4976281;28;20031;-81
2021/12/05 02:58:13;;;;;;;8.20;7.80;;;7.30;78.70;;;;;;5026062;28;20517;-80
2021/12/05 03:00:46;;;;;;;7.83;7.47;;;7.20;78.60;;;;;;5037157;28;20033;-80
2021/12/05 03:03:19;;;;;;;7.60;7.30;;;7.20;78.70;;;;;;5044003;28;20389;-81
2021/12/05 03:05:48;;;;;;;8.13;7.73;;;7.20;78.70;;;;;;5040173;28;20544;-81
2021/12/05 03:08:14;;;;;;;7.63;7.33;;;7.20;78.70;;;;;;5041253;28;20486;-80
2021/12/05 03:10:40;;;;;;;8.00;7.60;;;7.20;78.70;;;;;;5051192;28;20035;-81
2021/12/05 03:13:07;;;;;;;8.30;7.90;;;7.20;78.70;;;;;;5051841;28;20032;-81
2021/12/05 03:15:33;;;;;;;7.57;7.27;;;7.20;78.80;;;;;;5053298;28;20029;-81
2021/12/05 03:17:59;;;;;;;7.67;7.37;;;7.20;78.80;;;;;;5049148;28;20031;-81
2021/12/05 03:20:25;;;;;;;7.83;7.47;;;7.10;78.80;;;;;;5056312;28;20041;-81
2021/12/05 03:22:51;;;;;;;8.27;7.87;;;7.10;78.80;;;;;;5031061;28;20055;-81
2021/12/05 03:25:17;;;;;;;7.53;7.23;;;7.10;78.90;;;;;;5066221;28;20043;-81
2021/12/05 03:27:43;;;;;;;7.57;7.23;;;7.00;78.90;;;;;;5049622;28;20055;-81
2021/12/05 03:30:12;;;;;;;7.73;7.37;;;7.00;78.90;;;;;;5037851;28;20504;-80
2021/12/05 03:32:39;;;;;;;7.83;7.43;;;7.00;78.90;;;;;;5050023;28;20027;-80
2021/12/05 03:35:06;;;;;;;7.40;7.10;;;7.00;78.90;;;;;;5047217;28;20032;-80
2021/12/05 03:37:32;;;;;;;10.53;10.03;;;7.00;79.00;;;;;;5033695;28;20044;-80
2021/12/05 03:39:58;;;;;;;7.10;6.80;;;6.90;79.00;;;;;;5046769;28;20025;-80
2021/12/05 03:42:24;;;;;;;9.00;8.60;;;6.90;79.00;;;;;;5047933;28;20025;-80
2021/12/05 03:44:50;;;;;;;6.93;6.63;;;6.90;79.10;;;;;;5033574;28;20044;-80
2021/12/05 03:47:16;;;;;;;7.00;6.70;;;6.80;79.20;;;;;;5048135;28;20040;-80
2021/12/05 03:49:42;;;;;;;6.80;6.50;;;6.80;79.20;;;;;;5050859;28;20028;-80
2021/12/05 03:52:11;;;;;;;6.80;6.50;;;6.80;79.10;;;;;;5049190;28;20048;-80
2021/12/05 03:54:38;;;;;;;6.80;6.50;;;6.80;79.20;;;;;;5031302;28;20044;-80
2021/12/05 03:57:04;;;;;;;6.60;6.30;;;6.80;79.20;;;;;;5046820;28;20040;-80
2021/12/05 03:59:30;;;;;;;7.27;6.97;;;6.80;79.20;;;;;;5036268;28;20040;-80
2021/12/05 04:01:57;;;;;;;6.97;6.67;;;6.80;79.10;;;;;;5047957;28;20038;-80
2021/12/05 04:04:23;;;;;;;7.27;6.97;;;6.80;79.10;;;;;;5034447;28;20041;-80
2021/12/05 04:06:49;;;;;;;6.90;6.60;;;6.80;79.10;;;;;;5048435;28;20052;-80
2021/12/05 04:09:17;;;;;;;6.83;6.53;;;6.80;79.10;;;;;;5049048;28;20041;-80
2021/12/05 04:11:48;;;;;;;7.10;6.80;;;6.80;79.10;;;;;;5048957;28;20024;-80
2021/12/05 04:14:15;;;;;;;;;;;6.80;79.00;;;;;;5044877;28;20048;-80
2021/12/05 04:16:42;;;;;;;7.77;7.40;;;6.80;78.90;;;;;;5046570;28;19919;-80
2021/12/05 04:19:08;;;;;;;6.37;6.07;;;6.80;78.80;;;;;;5046789;28;20040;-80
2021/12/05 04:21:36;;;;;;;8.07;7.57;;;6.80;78.80;;;;;;5045761;28;20033;-80
2021/12/05 04:24:02;;;;;;;7.63;7.33;;;6.80;78.80;;;;;;5045906;28;20028;-80
2021/12/05 04:26:29;;;;;;;7.37;7.07;;;6.80;78.90;;;;;;5049816;28;20021;-80
2021/12/05 04:28:55;;;;;;;7.50;7.20;;;6.70;78.80;;;;;;5046604;28;20048;-80
2021/12/05 04:31:21;;;;;;;7.80;7.40;;;6.70;78.90;;;;;;5050269;28;20040;-80
2021/12/05 04:33:49;;;;;;;7.50;7.20;;;6.70;78.90;;;;;;5047987;28;20033;-80
2021/12/05 04:36:15;;;;;;;8.10;7.70;;;6.70;78.90;;;;;;5046492;28;20025;-80
2021/12/05 04:38:41;;;;;;;7.73;7.40;;;6.70;78.90;;;;;;5046757;28;20029;-81
2021/12/05 04:41:07;;;;;;;7.93;7.53;;;6.60;78.90;;;;;;5048826;28;20046;-80
2021/12/05 04:43:38;;;;;;;8.13;7.73;;;6.60;79.00;;;;;;5046442;28;20029;-80
2021/12/05 04:46:19;;;;;;;7.32;7.03;;;6.70;79.00;;;;;;5047820;28;20025;-80
2021/12/05 04:48:47;;;;;;;7.80;7.40;;;6.60;79.00;;;;;;5047971;28;20048;-80
2021/12/05 04:51:14;;;;;;;7.67;7.37;;;6.60;79.00;;;;;;5048240;28;20029;-80
2021/12/05 04:53:40;;;;;;;7.90;7.50;;;6.60;78.90;;;;;;5046546;28;20083;-80
2021/12/05 04:56:06;;;;;;;7.97;7.57;;;6.60;79.00;;;;;;5048768;28;20030;-80
2021/12/05 04:58:32;;;;;;;8.27;7.87;;;6.60;79.00;;;;;;5045302;28;20481;-79
2021/12/05 05:00:59;;;;;;;8.00;7.60;;;6.50;78.90;;;;;;5047532;28;20029;-79
2021/12/05 05:03:25;;;;;;;8.03;7.63;;;6.50;79.00;;;;;;5049053;28;20399;-79
2021/12/05 05:05:59;;;;;;;7.83;7.43;;;6.50;79.10;;;;;;5048200;28;20029;-79
2021/12/05 05:08:27;;;;;;;8.03;7.63;;;6.50;79.10;;;;;;5046371;28;20044;-79
2021/12/05 05:10:53;;;;;;;8.07;7.67;;;6.50;79.10;;;;;;5047560;28;20040;-79
2021/12/05 05:13:19;;;;;;;8.23;7.83;;;6.50;79.20;;;;;;5048403;28;20492;-79
2021/12/05 05:15:45;;;;;;;8.20;7.80;;;6.40;79.00;;;;;;5048097;28;20034;-79
2021/12/05 05:18:12;;;;;;;8.20;7.80;;;6.40;79.10;;;;;;5048227;28;20036;-79
2021/12/05 05:20:53;;;;;;;8.00;7.60;;;6.40;79.10;;;;;;5047111;28;20021;-79
2021/12/05 05:23:39;;;;;;;8.10;7.70;;;6.40;79.10;;;;;;5048508;28;20029;-79
2021/12/05 05:47:36;;;;;;;7.83;7.43;;;6.10;79.40;;;;;;5049763;28;20059;-79
2021/12/05 05:50:03;;;;;;;7.70;7.30;;;6.10;79.40;;;;;;5050616;28;20049;-79
2021/12/05 05:52:30;;;;;;;7.53;7.23;;;6.10;79.40;;;;;;5051500;28;20037;-79
2021/12/05 05:54:59;;;;;;;8.03;7.33;;;6.00;79.30;;;;;;5047622;28;20029;-79
2021/12/05 05:57:32;;;;;;;7.17;6.87;;;6.00;79.40;;;;;;5038056;28;20049;-79
2021/12/05 06:00:12;;;;;;;7.00;6.70;;;6.00;79.50;;;;;;5050285;28;20048;-79
2021/12/05 06:05:24;;;;;;;7.87;7.47;;;6.00;79.30;;;;;;5055225;28;20040;-79
2021/12/05 06:07:50;;;;;;;6.80;6.50;;;6.00;79.40;;;;;;5049914;28;20040;-79
2021/12/05 06:10:22;;;;;;;6.53;6.23;;;6.00;79.40;;;;;;5049275;28;20036;-79
2021/12/05 06:12:48;;;;;;;6.70;6.40;;;5.90;79.40;;;;;;5049829;28;20028;-79
2021/12/05 06:15:16;;;;;;;7.47;7.17;;;5.90;79.30;;;;;;5050709;28;20033;-79
2021/12/05 06:17:42;;;;;;;6.67;6.37;;;5.90;79.40;;;;;;5050978;28;20017;-79
2021/12/05 06:20:13;;;;;;;7.00;6.70;;;5.90;79.50;;;;;;5048626;28;20066;-79
2021/12/05 06:22:39;;;;;;;6.50;6.20;;;5.90;79.50;;;;;;5051576;28;20355;-79
2021/12/05 06:25:07;;;;;;;6.50;6.20;;;5.80;79.50;;;;;;5049096;28;20036;-79
2021/12/05 06:27:34;;;;;;;6.53;6.23;;;5.90;79.50;;;;;;5050346;28;20025;-80
2021/12/05 06:30:11;;;;;;;6.20;5.90;;;5.90;79.50;;;;;;5050316;28;20474;-79
2021/12/05 06:46:04;;;;;;;6.47;6.17;;;5.80;79.40;;;;;;4976639;28;20394;-78
2021/12/05 06:48:31;;;;;;;6.20;5.90;;;5.80;79.50;;;;;;4973901;28;20069;-78
2021/12/05 06:50:57;;;;;;;6.40;6.10;;;5.80;79.40;;;;;;4991211;28;20042;-79
2021/12/05 06:53:23;;;;;;;6.20;5.90;;;5.80;79.50;;;;;;5002317;28;20046;-83
2021/12/05 06:55:49;;;;;;;6.00;5.70;;;5.80;79.60;;;;;;4976408;28;20633;-80
2021/12/05 06:58:15;;;;;;;6.40;6.10;;;5.80;79.50;;;;;;5018574;28;20041;-79
2021/12/05 07:00:41;;;;;;;6.60;6.30;;;5.80;79.60;;;;;;4976667;28;20041;-79
2021/12/05 07:03:08;;;;;;;6.37;6.07;;;5.70;79.60;;;;;;5010466;28;20026;-78
2021/12/05 07:08:16;;;;;;;6.40;6.10;;;5.70;79.60;;;;;;5008999;28;20032;-78
2021/12/05 07:10:56;;;;;;;6.97;6.67;;;5.70;79.60;;;;;;4986866;28;20072;-78
2021/12/05 07:24:27;;;;;;;6.70;6.40;;;5.70;79.50;;;;;;5010403;28;20032;-78
2021/12/05 07:40:29;;;;;;;7.30;6.90;;;5.70;79.50;;;;;;5008895;28;20557;-81
2021/12/05 07:42:58;;;;;;;6.87;6.57;;;5.70;79.50;;;;;;5015088;28;20525;-83
2021/12/05 07:45:32;;;;;;;7.43;7.10;;;5.70;79.50;;;;;;5029547;28;20442;-81
2021/12/05 07:48:04;;;;;;;7.67;7.27;;;5.80;79.60;;;;;;5015476;28;20422;-82
2021/12/05 07:50:44;;;;;;;7.53;7.03;;;5.80;79.50;;;;;;5013359;28;20483;-83
2021/12/05 07:53:18;;;;;;;7.13;6.83;;;5.80;79.50;;;;;;4981705;28;20037;-82
2021/12/05 07:55:46;;;;;;;7.17;6.87;;;5.80;80.20;;;;;;4999469;28;20032;-83
2021/12/05 08:16:56;;;;;;;7.93;7.53;;;5.80;79.40;;;;;;5026604;28;20053;-80
2021/12/05 08:19:23;;;;;;;7.20;6.90;;;5.80;79.30;;;;;;5027886;28;20029;-85
2021/12/05 08:21:55;;;;;;;7.60;7.20;;;5.80;79.30;;;;;;5026397;28;20041;-83
2021/12/05 08:24:24;;;;;;;7.10;6.80;;;5.80;79.40;;;;;;5026239;28;20042;-81
2021/12/05 08:26:52;;;;;;;7.10;6.80;;;5.80;79.40;;;;;;5025991;28;20033;-85
2021/12/05 08:29:24;;;;;;;6.97;6.67;;;5.80;79.40;;;;;;5027691;28;20045;-84
2021/12/05 08:37:18;;;;;;;9.40;7.43;;;5.90;79.40;;;;;;5026952;28;20160;-80
2021/12/05 09:21:38;;;;;;;7.30;7.00;;;6.70;78.80;;;;;;4920695;29;20477;-82
2021/12/05 10:07:18;;;;;;;8.10;7.40;;;8.20;77.20;;;;;;4973418;28;20022;-73
2021/12/05 10:10:11;;;;;;;6.90;6.60;;;8.30;77.10;;;;;;4972090;28;20042;-73
2021/12/05 10:35:56;;;;;;;9.65;9.25;;;9.10;76.00;;;;;;5040939;28;20364;-89
2021/12/05 10:38:27;;;;;;;9.05;8.65;;;9.10;76.40;;;;;;5024196;28;20052;-89
2021/12/05 10:41:34;;;;;;;9.30;8.90;;;9.20;76.60;;;;;;5034813;28;20033;-88
2021/12/05 10:43:54;;;;;;;9.98;9.48;;;9.30;76.50;;;;;;5049347;28;20049;-87
2021/12/05 10:46:22;;;;;;;9.60;9.20;;;9.50;76.10;;;;;;5051446;28;20033;-88
2021/12/05 10:48:50;;;;;;;11.15;10.65;;;9.60;75.90;;;;;;5050476;28;20037;-88
2021/12/05 10:51:23;;;;;;;9.13;8.73;;;9.70;75.60;;;;;;5047531;28;20037;-87
2021/12/05 10:53:54;;;;;;;9.73;9.32;;;9.70;75.50;;;;;;5042626;28;20033;-87
2021/12/05 10:56:22;;;;;;;9.50;9.05;;;9.60;75.50;;;;;;5051276;28;20029;-87
2021/12/05 10:58:50;;;;;;;9.75;9.32;;;9.70;75.90;;;;;;5047598;28;20096;-84
2021/12/05 11:01:20;;;;;;;10.13;9.48;;;9.60;76.00;;;;;;5047508;28;20634;-89
2021/12/05 11:03:48;;;;;;;9.30;8.90;;;9.70;76.20;;;;;;5034539;28;20053;-88
2021/12/05 11:06:19;;;;;;;9.50;9.00;;;9.70;76.20;;;;;;5017182;28;20033;-89
2021/12/05 11:08:46;;;;;;;8.98;8.57;;;9.80;75.90;;;;;;5042017;28;20025;-90
2021/12/05 11:11:14;;;;;;;9.55;9.15;;;10.00;75.70;;;;;;5052840;28;20056;-88
2021/12/05 11:13:43;;;;;;;9.63;9.23;;;10.20;76.20;;;;;;5052436;28;20036;-90
2021/12/05 11:16:40;;;;;;;10.18;9.57;;;10.30;75.00;;;;;;5051726;28;20033;-93
2021/12/05 11:19:17;;;;;;;9.70;9.27;;;10.40;74.70;;;;;;5048415;28;20874;-94
2021/12/05 11:21:48;;;;;;;10.82;10.32;;;10.50;74.60;;;;;;5055101;28;20374;-93
2021/12/05 11:24:23;;;;;;;11.20;10.70;;;10.40;74.50;;;;;;5054756;28;20033;-93
2021/12/05 11:27:13;;;;;;;10.50;10.00;;;10.40;74.70;;;;;;5055686;28;20021;-93
2021/12/05 11:29:40;;;;;;;9.23;8.82;;;10.40;74.90;;;;;;5051893;28;20028;-93
2021/12/05 11:32:08;;;;;;;9.80;9.32;;;10.50;74.80;;;;;;5038607;28;20036;-93
2021/12/05 11:34:34;;;;;;;10.20;9.70;;;10.80;74.60;;;;;;5054546;28;20025;-93
2021/12/05 11:37:00;;;;;;;11.20;10.70;;;10.90;74.20;;;;;;5054931;28;20021;-92
2021/12/05 11:39:26;;;;;;;10.88;10.38;;;11.00;74.00;;;;;;5053231;28;20048;-93
2021/12/05 11:41:52;;;;;;;11.60;11.02;;;11.00;73.90;;;;;;5053191;28;20048;-94
2021/12/05 11:44:20;;;;;;;10.63;10.13;;;11.10;73.80;;;;;;5052946;28;20088;-93
2021/12/05 11:46:46;;;;;;;10.73;10.23;;;11.20;73.60;;;;;;5052397;28;20049;-93
2021/12/05 11:49:21;;;;;;;11.25;10.65;;;11.20;73.40;;;;;;5052977;28;20076;-93
2021/12/05 11:51:58;;;;;;;11.40;10.90;;;11.20;73.40;;;;;;5052719;28;20028;-93
2021/12/05 11:54:37;;;;;;;11.35;10.63;;;11.30;73.50;;;;;;5036389;28;20045;-92
2021/12/05 11:57:18;;;;;;;11.52;11.02;;;11.40;73.40;;;;;;5053471;28;20021;-92
2021/12/05 11:59:45;;;;;;;12.00;11.40;;;11.50;73.10;;;;;;5043621;28;20032;-92
2021/12/05 12:02:33;;;;;;;10.95;10.45;;;11.50;72.80;;;;;;5053933;28;20041;-93
2021/12/05 12:05:21;;;;;;;11.35;10.85;;;11.60;72.80;;;;;;5041732;28;20052;-93
2021/12/05 12:07:49;;;;;;;12.07;11.15;;;11.50;72.90;;;;;;5053321;28;20041;-92
2021/12/05 12:10:29;;;;;;;12.82;12.23;;;11.40;73.10;;;;;;5053693;28;20516;-93
2021/12/05 12:12:58;;;;;;;11.07;10.57;;;11.40;73.20;;;;;;5036671;28;20549;-92
2021/12/05 12:15:25;;;;;;;11.60;11.10;;;11.30;73.30;;;;;;5049585;28;20029;-93
2021/12/05 12:17:52;;;;;;;13.38;12.70;;;11.20;73.40;;;;;;5044125;28;20029;-92
2021/12/05 12:20:21;;;;;;;11.90;11.40;;;11.20;73.40;;;;;;5053138;28;20029;-94
2021/12/05 12:22:49;;;;;;;11.60;11.05;;;11.20;73.50;;;;;;5054617;28;20483;-93
2021/12/05 12:25:19;;;;;;;11.45;10.95;;;11.30;73.40;;;;;;5055166;28;20395;-93
2021/12/05 12:27:45;;;;;;;12.27;11.68;;;11.40;73.20;;;;;;5054919;28;20025;-93
2021/12/05 12:30:12;;;;;;;11.73;11.13;;;11.50;73.20;;;;;;5055267;28;20033;-93
2021/12/05 12:32:43;;;;;;;11.45;10.75;;;11.50;73.30;;;;;;5040309;28;20387;-93
2021/12/05 12:35:15;;;;;;;10.63;10.13;;;11.50;73.30;;;;;;5057505;28;20032;-93
2021/12/05 12:38:08;;;;;;;11.18;10.68;;;11.60;73.00;;;;;;5054302;28;20029;-93
2021/12/05 12:40:41;;;;;;;11.18;10.68;;;11.60;72.80;;;;;;5052360;28;20021;-92
2021/12/05 12:43:09;;;;;;;11.57;11.07;;;11.60;72.80;;;;;;5052350;28;20497;-93
2021/12/05 12:45:42;;;;;;;10.68;10.18;;;11.50;73.10;;;;;;5036902;28;20048;-93
2021/12/05 12:48:11;;;;;;;9.85;9.38;;;11.30;73.30;;;;;;5040273;28;20040;-93
2021/12/05 12:50:39;;;;;;;10.18;9.65;;;11.20;73.60;;;;;;5055419;28;20049;-93
2021/12/05 12:53:15;;;;;;;9.40;9.00;;;11.10;73.60;;;;;;5055836;28;20021;-93
2021/12/05 12:56:09;;;;;;;10.25;9.75;;;11.10;73.60;;;;;;5071689;28;20509;-93
2021/12/05 12:58:40;;;;;;;10.55;10.05;;;11.20;73.40;;;;;;5050669;28;20037;-94
2021/12/05 13:12:41;;;;;;;11.73;11.23;;;11.10;72.80;;;;;;5055812;28;20037;-94
2021/12/05 13:15:09;;;;;;;11.20;10.70;;;11.00;73.00;;;;;;5055074;28;20045;-93
2021/12/05 13:17:39;;;;;;;11.75;11.25;;;10.90;73.00;;;;;;5055644;28;20025;-93
2021/12/05 13:20:06;;;;;;;23.55;22.40;;;10.80;73.00;;;;;;5022925;28;20037;-93
2021/12/05 13:22:32;;;;;;;12.68;12.07;;;10.70;73.00;;;;;;5056419;28;20025;-93
2021/12/05 13:25:06;;;;;;;11.60;11.10;;;10.60;72.90;;;;;;5056898;28;20036;-94
2021/12/05 13:27:32;;;;;;;11.65;11.15;;;10.50;72.90;;;;;;5033876;28;20041;-92
2021/12/05 13:29:58;;;;;;;11.63;11.13;;;10.40;72.90;;;;;;5048101;28;20044;-94
2021/12/05 13:32:29;;;;;;;11.38;10.88;;;10.30;73.00;;;;;;5039665;28;20398;-93
2021/12/05 13:35:06;;;;;;;11.73;11.23;;;10.30;73.00;;;;;;5043216;28;20037;-93
2021/12/05 13:37:56;;;;;;;11.48;10.98;;;10.20;73.10;;;;;;5057696;28;20037;-93
2021/12/05 13:40:25;;;;;;;14.43;13.73;;;10.10;73.10;;;;;;5057027;28;20032;-93
2021/12/05 13:43:05;;;;;;;11.82;10.80;;;10.10;72.90;;;;;;5055664;28;20029;-93
2021/12/05 13:45:41;;;;;;;10.77;10.27;;;10.10;72.90;;;;;;5040253;28;20036;-93
2021/12/05 13:48:18;;;;;;;11.90;11.40;;;10.00;72.90;;;;;;5060439;28;20493;-92
2021/12/05 13:50:45;;;;;;;10.95;10.45;;;9.90;73.50;;;;;;5060490;28;20040;-93
2021/12/05 13:53:12;;;;;;;10.80;10.30;;;9.90;72.90;;;;;;5062277;28;20040;-93
2021/12/05 13:56:11;;;;;;;11.20;10.70;;;9.90;72.90;;;;;;5062306;28;20044;-93
2021/12/05 13:58:40;;;;;;;10.73;10.23;;;9.90;72.90;;;;;;5056985;28;20037;-92
2021/12/05 14:01:30;;;;;;;11.55;11.05;;;9.90;72.90;;;;;;5057734;28;20037;-92
2021/12/05 14:04:19;;;;;;;16.35;10.63;;;9.90;72.90;;;;;;5044025;28;20040;-93
2021/12/05 14:06:54;;;;;;;10.32;9.82;;;9.80;72.90;;;;;;5061232;28;20032;-93
2021/12/05 14:09:25;;;;;;;10.88;10.38;;;9.80;73.00;;;;;;5059981;28;20032;-93
2021/12/05 14:12:11;;;;;;;10.18;9.70;;;9.80;72.80;;;;;;5061256;28;20041;-93
2021/12/05 14:14:47;;;;;;;10.90;10.40;;;9.80;72.90;;;;;;5060469;28;20406;-93
2021/12/05 14:17:20;;;;;;;10.30;9.80;;;9.90;72.90;;;;;;5058472;28;20025;-93
2021/12/05 14:19:52;;;;;;;10.70;10.20;;;9.80;72.80;;;;;;5042050;28;20037;-93
2021/12/05 14:22:19;;;;;;;10.90;10.40;;;9.80;73.70;;;;;;5054568;28;20078;-93
2021/12/05 14:24:50;;;;;;;11.93;11.43;;;9.80;73.10;;;;;;5059647;28;20025;-93
2021/12/05 14:27:18;;;;;;;9.48;9.07;;;9.80;73.10;;;;;;5040793;28;20494;-93
2021/12/05 14:29:47;;;;;;;10.82;10.32;;;9.70;73.20;;;;;;5042292;28;20045;-94
2021/12/05 14:32:21;;;;;;;10.90;10.40;;;9.70;73.40;;;;;;5058520;28;20473;-94
2021/12/05 14:34:55;;;;;;;9.43;9.02;;;9.70;73.50;;;;;;5059214;28;20051;-92
2021/12/05 14:37:24;;;;;;;9.90;9.43;;;9.60;73.50;;;;;;5059703;28;20036;-93
2021/12/05 14:39:52;;;;;;;9.43;9.02;;;9.70;73.60;;;;;;5060141;28;20040;-93
2021/12/05 14:42:20;;;;;;;9.85;9.40;;;9.70;73.50;;;;;;5059542;28;20029;-93
2021/12/05 14:44:49;;;;;;;10.95;10.45;;;9.70;73.50;;;;;;5042504;28;20044;-93
2021/12/05 14:47:23;;;;;;;10.32;9.60;;;9.70;73.50;;;;;;5038310;28;20055;-93
2021/12/05 14:49:54;;;;;;;9.75;9.32;;;9.80;73.50;;;;;;5057621;28;20048;-93
2021/12/05 14:52:26;;;;;;;10.23;9.73;;;9.80;73.50;;;;;;5039568;28;20033;-93
2021/12/05 14:54:52;;;;;;;10.38;9.88;;;9.80;73.40;;;;;;5058522;28;20033;-93
2021/12/05 14:57:24;;;;;;;11.25;10.65;;;9.70;73.40;;;;;;5059093;28;20036;-93
2021/12/05 14:59:51;;;;;;;10.32;9.82;;;9.70;73.40;;;;;;5057590;28;20037;-93
2021/12/05 15:02:19;;;;;;;9.98;9.48;;;9.70;73.50;;;;;;5055869;28;20040;-93
2021/12/05 15:04:50;;;;;;;9.05;8.65;;;9.70;73.60;;;;;;5056331;28;20025;-92
2021/12/05 15:07:20;;;;;;;9.32;8.93;;;9.60;73.60;;;;;;5052569;28;20470;-93
2021/12/05 15:09:47;;;;;;;8.93;8.53;;;9.60;73.70;;;;;;5055638;28;20395;-93
2021/12/05 15:12:18;;;;;;;9.43;9.02;;;9.60;73.80;;;;;;5055863;28;20021;-93
2021/12/05 15:14:45;;;;;;;14.40;10.00;;;9.60;73.80;;;;;;5054608;28;20032;-93
2021/12/05 15:17:17;;;;;;;9.45;9.02;;;9.60;73.80;;;;;;5043195;28;20040;-93
2021/12/05 15:19:46;;;;;;;9.20;8.80;;;9.60;73.80;;;;;;5054524;28;20375;-94
2021/12/05 15:22:14;;;;;;;9.35;8.95;;;9.60;73.80;;;;;;5053120;28;20021;-93
2021/12/05 15:24:41;;;;;;;9.50;9.10;;;9.60;73.80;;;;;;5055984;28;20033;-94
2021/12/05 15:27:15;;;;;;;9.20;8.80;;;9.60;73.80;;;;;;5055246;28;20043;-93
2021/12/05 15:29:55;;;;;;;9.77;9.35;;;9.60;73.80;;;;;;5054627;28;20025;-93
2021/12/05 15:32:26;;;;;;;9.98;9.50;;;9.60;73.90;;;;;;5037451;28;20382;-92
2021/12/05 15:35:13;;;;;;;10.20;9.70;;;9.60;74.00;;;;;;5054562;28;20025;-93
2021/12/05 15:37:56;;;;;;;8.93;8.52;;;9.60;74.00;;;;;;5045344;28;20034;-92
2021/12/05 15:40:24;;;;;;;9.85;9.35;;;9.60;74.00;;;;;;5037614;28;20041;-93
2021/12/05 15:42:50;;;;;;;9.35;8.95;;;9.60;74.00;;;;;;5054021;28;20040;-93
2021/12/05 15:45:18;;;;;;;10.00;9.50;;;9.60;74.10;;;;;;5053715;28;20028;-93
2021/12/05 15:47:46;;;;;;;10.02;9.52;;;9.60;74.10;;;;;;5045732;28;20383;-93
2021/12/05 15:50:13;;;;;;;10.23;9.23;;;9.60;74.20;;;;;;5055038;28;20041;-92
2021/12/05 15:52:39;;;;;;;9.57;9.18;;;9.60;74.20;;;;;;5038898;28;20040;-93
2021/12/05 15:55:16;;;;;;;10.15;9.55;;;9.60;74.20;;;;;;5055915;28;20043;-93
2021/12/05 15:57:45;;;;;;;9.80;9.35;;;9.50;74.20;;;;;;5055570;28;20032;-93
2021/12/05 16:00:15;;;;;;;9.75;9.25;;;9.50;74.30;;;;;;5037436;28;20032;-93
2021/12/05 16:02:46;;;;;;;10.10;9.60;;;9.50;74.30;;;;;;5036853;28;20033;-92
2021/12/05 16:05:17;;;;;;;10.88;10.27;;;9.50;74.30;;;;;;5052994;28;20021;-93
2021/12/05 16:07:44;;;;;;;9.73;9.20;;;9.50;74.40;;;;;;5052471;28;20032;-90
2021/12/05 16:10:13;;;;;;;10.10;9.60;;;9.50;74.40;;;;;;5018503;28;20045;-87
2021/12/05 16:12:40;;;;;;;10.52;10.02;;;9.50;74.40;;;;;;5030313;28;20072;-87
2021/12/05 16:15:06;;;;;;;10.57;9.68;;;9.50;74.40;;;;;;5060159;28;20021;-87
2021/12/05 16:17:33;;;;;;;10.32;9.82;;;9.50;74.40;;;;;;5032761;28;20033;-86
2021/12/05 16:20:08;;;;;;;9.60;9.20;;;9.40;74.20;;;;;;5050338;28;20025;-86
2021/12/05 16:22:54;;;;;;;9.90;9.40;;;9.40;74.40;;;;;;5047379;28;20028;-88
2021/12/05 16:25:20;;;;;;;10.13;9.63;;;9.40;74.50;;;;;;5065664;28;20036;-87
2021/12/05 16:27:54;;;;;;;10.38;9.88;;;9.40;74.50;;;;;;5049626;28;20040;-85
2021/12/05 16:30:24;;;;;;;9.63;9.23;;;9.30;74.40;;;;;;5031497;28;20045;-88
2021/12/05 16:32:51;;;;;;;10.00;9.50;;;9.30;74.50;;;;;;5046809;28;20032;-87
2021/12/05 16:35:37;;;;;;;10.15;9.65;;;9.30;74.60;;;;;;5022560;28;20049;-84
2021/12/05 16:38:23;;;;;;;9.80;9.35;;;9.30;74.60;;;;;;5049331;28;20032;-84
2021/12/05 16:40:55;;;;;;;10.65;10.15;;;9.30;74.60;;;;;;5046881;28;20033;-86
2021/12/05 16:43:22;;;;;;;10.13;9.63;;;9.20;74.60;;;;;;5064705;28;20036;-87
2021/12/05 16:45:48;;;;;;;11.02;10.52;;;9.20;74.60;;;;;;5027353;28;20029;-86
2021/12/05 16:48:17;;;;;;;10.32;9.82;;;9.20;75.40;;;;;;5042968;28;20064;-87
2021/12/05 16:50:44;;;;;;;10.90;10.23;;;9.20;74.60;;;;;;5049592;28;20039;-87
2021/12/05 16:53:13;;;;;;;10.88;10.27;;;9.20;74.70;;;;;;5033194;28;20500;-86
2021/12/05 16:55:44;;;;;;;10.05;9.57;;;9.20;74.60;;;;;;5049410;28;20037;-88
2021/12/05 16:58:17;;;;;;;10.60;10.10;;;9.20;74.60;;;;;;5046662;28;20032;-88
2021/12/05 17:00:52;;;;;;;11.90;11.07;;;9.20;74.60;;;;;;5049285;28;20025;-88
2021/12/05 17:03:23;;;;;;;10.20;9.70;;;9.20;74.60;;;;;;5048850;28;20036;-88
2021/12/05 17:05:51;;;;;;;11.15;10.65;;;9.20;74.60;;;;;;5048478;28;20014;-88
2021/12/05 17:08:24;;;;;;;10.50;10.00;;;9.20;74.60;;;;;;5050247;28;20501;-87
2021/12/05 17:11:05;;;;;;;12.15;10.50;;;9.20;74.60;;;;;;5032263;28;20045;-86
2021/12/05 17:13:45;;;;;;;10.43;9.93;;;9.20;74.60;;;;;;5050340;28;20029;-86
2021/12/05 17:16:16;;;;;;;10.53;10.03;;;9.20;74.70;;;;;;5031546;28;20037;-88
2021/12/05 17:19:06;;;;;;;10.50;10.00;;;9.20;74.70;;;;;;5066095;28;20040;-86
2021/12/05 17:21:49;;;;;;;10.90;10.40;;;9.20;74.70;;;;;;5052068;28;20037;-87
2021/12/05 17:24:20;;;;;;;10.57;10.07;;;9.20;74.60;;;;;;5054403;28;20373;-87
2021/12/05 17:27:00;;;;;;;11.30;10.80;;;9.20;74.60;;;;;;5036497;28;20040;-88
2021/12/05 17:29:35;;;;;;;10.67;10.17;;;9.20;74.60;;;;;;5053448;28;20035;-88
2021/12/05 17:32:08;;;;;;;11.50;10.90;;;9.20;74.60;;;;;;5053216;28;20271;-88
2021/12/05 17:34:45;;;;;;;11.00;10.50;;;9.20;74.60;;;;;;5046463;28;20036;-88
2021/12/05 17:37:23;;;;;;;10.75;10.25;;;9.20;74.60;;;;;;5034470;28;20049;-87
2021/12/05 17:39:49;;;;;;;11.32;10.73;;;9.20;74.60;;;;;;5052275;28;20041;-87
2021/12/05 17:42:23;;;;;;;11.38;10.77;;;9.20;74.60;;;;;;5036335;28;20032;-88
2021/12/05 17:44:51;;;;;;;10.68;10.18;;;9.20;74.60;;;;;;5036650;28;20044;-87
2021/12/05 17:47:17;;;;;;;11.00;10.50;;;9.30;74.70;;;;;;5041490;28;20052;-88
2021/12/05 17:49:51;;;;;;;10.52;10.02;;;9.20;74.60;;;;;;5035574;28;20029;-84
2021/12/05 17:52:18;;;;;;;10.73;10.23;;;9.20;74.70;;;;;;5053261;28;20504;-88
2021/12/05 17:55:00;;;;;;;9.60;9.20;;;9.20;74.70;;;;;;5053813;28;20028;-85
2021/12/05 17:57:36;;;;;;;12.70;12.00;;;9.20;74.80;;;;;;5042600;28;20065;-86
2021/12/05 18:00:35;;;;;;;11.88;10.80;;;9.20;74.80;;;;;;5059967;28;20029;-84
2021/12/05 18:02:54;;;;;;;11.13;10.63;;;9.20;74.80;;;;;;5052652;28;20045;-82
2021/12/05 18:05:50;;;;;;;10.88;10.27;;;9.20;74.80;;;;;;5052512;28;20033;-83
2021/12/05 18:08:19;;;;;;;10.73;10.23;;;9.20;74.80;;;;;;5036779;28;20041;-83
2021/12/05 18:10:49;;;;;;;11.23;10.60;;;9.20;74.80;;;;;;5052431;28;20052;-83
2021/12/05 18:13:20;;;;;;;10.90;10.40;;;9.20;74.80;;;;;;5052736;28;20035;-84
2021/12/05 18:15:54;;;;;;;10.85;10.35;;;9.20;74.80;;;;;;5050664;28;20200;-86
2021/12/05 18:18:21;;;;;;;10.40;9.90;;;9.20;74.80;;;;;;5052497;28;20032;-83
2021/12/05 18:20:48;;;;;;;10.65;10.15;;;9.20;74.80;;;;;;5052114;28;20051;-84
2021/12/05 18:23:14;;;;;;;11.30;10.70;;;9.20;74.90;;;;;;5034837;28;20463;-84
2021/12/05 18:25:40;;;;;;;10.25;9.75;;;9.20;74.90;;;;;;5034312;28;20048;-85
2021/12/05 18:28:06;;;;;;;10.40;9.90;;;9.20;75.00;;;;;;5032897;28;20055;-87
2021/12/05 18:30:32;;;;;;;10.32;9.82;;;9.20;75.00;;;;;;5049210;28;20037;-83
2021/12/05 18:32:59;;;;;;;11.45;10.85;;;9.20;75.00;;;;;;5049929;28;20037;-82